Time;durP1;ratioP1;P1;durP2;ratioP2;P2;SDS_P1;SDS_P2;PMS_P1;PMS_P2;Temp;Humidity;BMP_temperature;BMP_pressure;BME280_temperature;BME280_humidity;BME280_pressure;Samples;Min_cycle;Max_cycle;Signal;HPM_P1;HPM_P2
2022/04/16 00:02:13;;;;;;;62.27;4.20;;;;;;;;;;5085869;28;21082;-72
2022/04/16 00:04:42;;;;;;;61.07;4.83;;;;;;;;;;5089547;28;20468;-71
2022/04/16 00:07:11;;;;;;;59.87;4.60;;;;;;;;;;5088342;28;20469;-73
2022/04/16 00:09:38;;;;;;;60.63;4.53;;;;;;;;;;5090193;28;20479;-72
2022/04/16 00:12:06;;;;;;;60.20;4.20;;;;;;;;;;5084439;28;20466;-71
2022/04/16 00:14:36;;;;;;;62.03;4.57;;;;;;;;;;5086449;28;20487;-73
2022/04/16 00:17:03;;;;;;;60.27;5.07;;;;;;;;;;5088306;28;20469;-71
2022/04/16 00:19:31;;;;;;;60.47;5.13;;;;;;;;;;5089495;28;20922;-71
2022/04/16 00:22:00;;;;;;;61.90;5.07;;;;;;;;;;5080048;28;20503;-71
2022/04/16 00:24:28;;;;;;;60.53;4.57;;;;;;;;;;5091776;28;20462;-71
2022/04/16 00:26:55;;;;;;;60.60;4.70;;;;;;;;;;5092572;28;20840;-71
2022/04/16 00:29:23;;;;;;;60.97;4.57;;;;;;;;;;5093288;28;20478;-71
2022/04/16 00:31:51;;;;;;;59.97;4.47;;;;;;;;;;5088780;28;20460;-71
2022/04/16 00:34:18;;;;;;;59.90;4.10;;;;;;;;;;5086995;28;20464;-72
2022/04/16 00:36:46;;;;;;;59.87;4.20;;;;;;;;;;5093396;28;20535;-73
2022/04/16 00:39:13;;;;;;;60.23;4.47;;;;;;;;;;5086222;28;20503;-71
2022/04/16 00:41:43;;;;;;;59.67;4.00;;;;;;;;;;5089438;28;20499;-71
2022/04/16 00:44:10;;;;;;;59.30;3.77;;;;;;;;;;5090907;28;20800;-72
2022/04/16 00:46:37;;;;;;;59.20;4.03;;;;;;;;;;5086312;28;20469;-72
2022/04/16 00:49:04;;;;;;;59.87;4.10;;;;;;;;;;5089246;28;20489;-72
2022/04/16 00:51:31;;;;;;;59.87;3.80;;;;;;;;;;5093222;28;20551;-71
2022/04/16 00:53:59;;;;;;;60.27;4.10;;;;;;;;;;5093654;28;20474;-71
2022/04/16 00:56:26;;;;;;;60.33;4.47;;;;;;;;;;5082632;28;20555;-71
2022/04/16 00:58:54;;;;;;;60.50;4.23;;;;;;;;;;5090704;28;20574;-71
2022/04/16 01:01:22;;;;;;;60.67;4.00;;;;;;;;;;5093269;28;20479;-71
2022/04/16 01:03:49;;;;;;;60.20;4.23;;;;;;;;;;5085081;28;20288;-71
2022/04/16 01:06:17;;;;;;;59.37;3.53;;;;;;;;;;5092893;28;21171;-71
2022/04/16 01:08:45;;;;;;;60.10;4.20;;;;;;;;;;5087185;28;20851;-72
2022/04/16 01:11:12;;;;;;;59.73;4.03;;;;;;;;;;5094983;28;20532;-72
2022/04/16 01:13:39;;;;;;;59.77;4.07;;;;;;;;;;5092884;28;20565;-71
2022/04/16 01:16:08;;;;;;;59.95;4.20;;;;;;;;;;5091518;28;20555;-71
2022/04/16 01:18:36;;;;;;;59.77;4.33;;;;;;;;;;5086784;28;20234;-71
2022/04/16 01:21:04;;;;;;;59.70;4.05;;;;;;;;;;5090425;28;20460;-72
2022/04/16 01:23:32;;;;;;;60.10;4.10;;;;;;;;;;5092577;28;20213;-71
2022/04/16 01:25:59;;;;;;;60.97;4.07;;;;;;;;;;5091558;28;20491;-71
2022/04/16 01:28:27;;;;;;;60.40;4.37;;;;;;;;;;5088108;28;20235;-71
2022/04/16 01:30:54;;;;;;;60.97;4.50;;;;;;;;;;5090936;28;20470;-71
2022/04/16 01:33:21;;;;;;;60.67;4.50;;;;;;;;;;5084421;28;20470;-71
2022/04/16 01:35:53;;;;;;;64.90;4.22;;;;;;;;;;5085010;28;20201;-73
2022/04/16 01:38:20;;;;;;;60.80;3.97;;;;;;;;;;5087325;28;20588;-71
2022/04/16 01:40:49;;;;;;;59.88;4.20;;;;;;;;;;5092008;28;20292;-71
2022/04/16 01:43:16;;;;;;;59.67;3.88;;;;;;;;;;5088158;28;20716;-72
2022/04/16 01:45:43;;;;;;;60.10;4.15;;;;;;;;;;5088173;28;20200;-71
2022/04/16 01:48:10;;;;;;;59.75;4.05;;;;;;;;;;5089983;28;20240;-72
2022/04/16 01:50:37;;;;;;;60.10;4.15;;;;;;;;;;5093992;28;20206;-71
2022/04/16 01:53:04;;;;;;;60.22;4.10;;;;;;;;;;5073739;28;20212;-71
2022/04/16 01:55:32;;;;;;;60.58;4.72;;;;;;;;;;5080808;28;20204;-71
2022/04/16 01:58:00;;;;;;;61.42;4.43;;;;;;;;;;5082315;28;20257;-71
2022/04/16 02:00:27;;;;;;;59.67;4.40;;;;;;;;;;5087023;28;20259;-71
2022/04/16 02:02:57;;;;;;;60.60;4.50;;;;;;;;;;5090292;28;20848;-71
2022/04/16 02:05:24;;;;;;;60.47;4.25;;;;;;;;;;5087341;28;20575;-71
2022/04/16 02:07:51;;;;;;;60.92;4.53;;;;;;;;;;5089937;28;20227;-71
2022/04/16 02:10:19;;;;;;;60.58;4.72;;;;;;;;;;5090462;28;20206;-71
2022/04/16 02:12:46;;;;;;;60.08;4.03;;;;;;;;;;5091888;28;20214;-71
2022/04/16 02:15:15;;;;;;;59.70;4.00;;;;;;;;;;5089771;28;20296;-71
2022/04/16 02:17:42;;;;;;;62.78;4.80;;;;;;;;;;5089080;28;20205;-71
2022/04/16 02:20:10;;;;;;;59.97;4.22;;;;;;;;;;5090024;28;20217;-72
2022/04/16 02:22:41;;;;;;;60.28;4.35;;;;;;;;;;5091948;28;20207;-72
2022/04/16 02:25:09;;;;;;;60.65;4.68;;;;;;;;;;5086718;28;20205;-71
2022/04/16 02:27:36;;;;;;;60.75;4.72;;;;;;;;;;5085164;28;20215;-72
2022/04/16 02:30:04;;;;;;;60.05;4.55;;;;;;;;;;5078810;28;20193;-71
2022/04/16 02:32:34;;;;;;;60.22;4.60;;;;;;;;;;5089963;28;20693;-72
2022/04/16 02:35:01;;;;;;;60.13;4.38;;;;;;;;;;5085434;28;20576;-72
2022/04/16 02:37:28;;;;;;;62.53;4.68;;;;;;;;;;5090629;28;20200;-71
2022/04/16 02:39:56;;;;;;;61.83;4.35;;;;;;;;;;5089571;28;20221;-71
2022/04/16 02:42:23;;;;;;;60.15;4.43;;;;;;;;;;5090132;28;20290;-71
2022/04/16 02:47:35;;;;;;;61.67;4.80;;;;;;;;;;5072575;28;20212;-71
2022/04/16 02:50:02;;;;;;;61.03;4.25;;;;;;;;;;5086663;28;20219;-71
2022/04/16 02:52:33;;;;;;;60.78;4.40;;;;;;;;;;5089959;28;20201;-72
2022/04/16 02:55:00;;;;;;;60.58;4.45;;;;;;;;;;5088829;28;20722;-71
2022/04/16 02:57:27;;;;;;;62.22;4.68;;;;;;;;;;5084715;28;20236;-71
2022/04/16 02:59:54;;;;;;;61.72;5.00;;;;;;;;;;5084612;28;20224;-71
2022/04/16 03:02:21;;;;;;;60.75;4.57;;;;;;;;;;5089111;28;20284;-70
2022/04/16 03:04:50;;;;;;;61.45;4.90;;;;;;;;;;5090990;28;20735;-71
2022/04/16 03:07:18;;;;;;;60.88;4.90;;;;;;;;;;5088780;28;20196;-71
2022/04/16 03:09:46;;;;;;;61.70;5.32;;;;;;;;;;5088965;28;20727;-71
2022/04/16 03:12:13;;;;;;;60.90;5.30;;;;;;;;;;5089700;28;20274;-71
2022/04/16 03:17:34;;;;;;;60.95;5.00;;;;;;;;;;5089769;28;20202;-71
2022/04/16 03:20:04;;;;;;;62.58;5.45;;;;;;;;;;5089186;28;20227;-72
2022/04/16 03:22:32;;;;;;;60.60;5.05;;;;;;;;;;5084394;28;20202;-72
2022/04/16 03:24:59;;;;;;;60.72;4.93;;;;;;;;;;5081556;28;20196;-71
2022/04/16 03:27:26;;;;;;;62.35;5.18;;;;;;;;;;5088521;28;20283;-72
2022/04/16 03:29:53;;;;;;;61.55;5.30;;;;;;;;;;5087413;28;20657;-69
2022/04/16 03:32:20;;;;;;;61.05;5.45;;;;;;;;;;5088630;28;20304;-72
2022/04/16 03:34:48;;;;;;;61.35;5.40;;;;;;;;;;5085658;28;20212;-71
2022/04/16 03:37:16;;;;;;;61.17;5.15;;;;;;;;;;5088184;28;20216;-71
2022/04/16 03:39:44;;;;;;;60.60;5.15;;;;;;;;;;5088605;28;20595;-71
2022/04/16 03:42:12;;;;;;;61.25;4.93;;;;;;;;;;5088489;28;20196;-72
2022/04/16 03:44:39;;;;;;;60.92;5.00;;;;;;;;;;5084594;28;20677;-72
2022/04/16 03:47:06;;;;;;;60.20;4.85;;;;;;;;;;5088220;28;20228;-71
2022/04/16 03:49:33;;;;;;;61.15;5.50;;;;;;;;;;5088294;28;20315;-72
2022/04/16 03:52:00;;;;;;;60.38;5.00;;;;;;;;;;5082800;28;20238;-71
2022/04/16 04:00:01;;;;;;;63.55;4.88;;;;;;;;;;5083594;28;20236;-71
2022/04/16 04:02:29;;;;;;;60.97;4.65;;;;;;;;;;5076606;28;20232;-71
2022/04/16 04:04:56;;;;;;;61.85;5.07;;;;;;;;;;5087088;28;20223;-71
2022/04/16 04:07:25;;;;;;;60.85;5.20;;;;;;;;;;5087700;28;20208;-72
2022/04/16 04:09:54;;;;;;;60.55;4.85;;;;;;;;;;5089630;28;20212;-71
2022/04/16 04:12:21;;;;;;;60.60;5.30;;;;;;;;;;5086324;28;20207;-72
2022/04/16 04:14:49;;;;;;;61.47;5.70;;;;;;;;;;5087273;28;20230;-71
2022/04/16 04:17:16;;;;;;;60.97;5.05;;;;;;;;;;5087057;28;20206;-72
2022/04/16 04:19:44;;;;;;;61.85;5.60;;;;;;;;;;5089946;28;20256;-71
2022/04/16 04:22:12;;;;;;;61.55;5.65;;;;;;;;;;5084426;28;20223;-71
2022/04/16 04:24:39;;;;;;;61.33;5.50;;;;;;;;;;5089770;28;20239;-71
2022/04/16 04:27:08;;;;;;;64.53;5.85;;;;;;;;;;5087952;28;20283;-72
2022/04/16 04:29:36;;;;;;;61.53;4.90;;;;;;;;;;5088504;28;20299;-71
2022/04/16 04:32:03;;;;;;;60.90;5.53;;;;;;;;;;5086948;28;20203;-72
2022/04/16 04:34:31;;;;;;;61.20;5.30;;;;;;;;;;5088292;28;20205;-71
2022/04/16 04:36:58;;;;;;;61.17;5.55;;;;;;;;;;5088342;28;20239;-71
2022/04/16 04:39:25;;;;;;;61.67;5.80;;;;;;;;;;5089078;28;20216;-71
2022/04/16 04:41:52;;;;;;;60.95;5.55;;;;;;;;;;5087628;28;20204;-71
2022/04/16 04:44:21;;;;;;;61.03;5.20;;;;;;;;;;5086817;28;20572;-71
2022/04/16 04:46:48;;;;;;;61.35;5.40;;;;;;;;;;5087841;28;20292;-71
2022/04/16 04:49:15;;;;;;;63.92;5.13;;;;;;;;;;5088320;28;20676;-71
2022/04/16 04:51:42;;;;;;;61.80;4.90;;;;;;;;;;5082235;28;20204;-71
2022/04/16 04:54:10;;;;;;;60.83;5.85;;;;;;;;;;5087709;28;20669;-71
2022/04/16 04:56:37;;;;;;;61.53;5.55;;;;;;;;;;5089631;28;20205;-71
2022/04/16 04:59:05;;;;;;;62.35;5.78;;;;;;;;;;5086897;28;20248;-71
2022/04/16 05:01:33;;;;;;;63.13;5.63;;;;;;;;;;5085092;28;20588;-71
2022/04/16 05:04:00;;;;;;;61.05;5.55;;;;;;;;;;5087483;28;20292;-71
2022/04/16 05:06:27;;;;;;;61.22;5.38;;;;;;;;;;5084514;28;20582;-71
2022/04/16 05:08:55;;;;;;;60.80;4.97;;;;;;;;;;5090506;28;20489;-70
2022/04/16 05:11:22;;;;;;;60.60;4.53;;;;;;;;;;5090519;28;20680;-72
2022/04/16 05:13:49;;;;;;;61.72;5.65;;;;;;;;;;5095033;28;20204;-72
2022/04/16 05:16:16;;;;;;;61.53;5.25;;;;;;;;;;5091564;28;20215;-71
2022/04/16 05:18:45;;;;;;;61.47;5.50;;;;;;;;;;5092030;28;20225;-72
2022/04/16 05:21:12;;;;;;;61.20;5.60;;;;;;;;;;5090511;28;20224;-71
2022/04/16 05:23:40;;;;;;;61.33;5.15;;;;;;;;;;5090920;28;20353;-72
2022/04/16 05:26:09;;;;;;;61.47;5.05;;;;;;;;;;5090924;28;20669;-71
2022/04/16 05:28:36;;;;;;;61.50;5.20;;;;;;;;;;5090377;28;20224;-72
2022/04/16 05:31:04;;;;;;;60.67;5.10;;;;;;;;;;5092292;28;20657;-71
2022/04/16 05:36:17;;;;;;;61.10;5.38;;;;;;;;;;5085443;28;20217;-72
2022/04/16 05:38:45;;;;;;;61.22;5.15;;;;;;;;;;5092135;28;20232;-71
2022/04/16 05:41:12;;;;;;;60.28;5.05;;;;;;;;;;5090594;28;20229;-69
2022/04/16 05:43:39;;;;;;;61.10;5.17;;;;;;;;;;5088236;28;20205;-72
2022/04/16 05:46:06;;;;;;;65.57;5.17;;;;;;;;;;5092401;28;20473;-72
2022/04/16 05:48:33;;;;;;;62.10;5.90;;;;;;;;;;5082039;28;20495;-71
2022/04/16 05:51:01;;;;;;;62.37;4.90;;;;;;;;;;5087026;28;20465;-71
2022/04/16 05:53:30;;;;;;;60.10;4.87;;;;;;;;;;5086024;28;20468;-71
2022/04/16 05:55:57;;;;;;;61.70;6.20;;;;;;;;;;5088315;28;20846;-72
2022/04/16 05:58:25;;;;;;;60.57;4.63;;;;;;;;;;5088505;28;20492;-72
2022/04/16 06:00:52;;;;;;;60.60;4.80;;;;;;;;;;5087348;28;20492;-71
2022/04/16 06:03:19;;;;;;;60.60;5.40;;;;;;;;;;5094332;28;20530;-71
2022/04/16 06:05:47;;;;;;;64.78;4.75;;;;;;;;;;5079309;28;20442;-71
2022/04/16 06:08:14;;;;;;;60.90;5.00;;;;;;;;;;5073107;28;20233;-71
2022/04/16 06:10:42;;;;;;;62.70;5.30;;;;;;;;;;5073676;28;20832;-71
2022/04/16 06:13:09;;;;;;;60.77;5.43;;;;;;;;;;5089481;28;20838;-71
2022/04/16 06:15:37;;;;;;;60.30;4.80;;;;;;;;;;5093821;28;20451;-71
2022/04/16 06:18:04;;;;;;;62.30;5.30;;;;;;;;;;5077100;28;20557;-71
2022/04/16 06:20:31;;;;;;;63.20;5.33;;;;;;;;;;5072876;28;20485;-71
2022/04/16 06:22:58;;;;;;;60.60;5.50;;;;;;;;;;5073293;28;20446;-72
2022/04/16 06:25:25;;;;;;;60.30;4.80;;;;;;;;;;5073631;28;20529;-71
2022/04/16 06:27:54;;;;;;;59.77;4.43;;;;;;;;;;5072586;28;20993;-71
2022/04/16 06:30:21;;;;;;;61.73;5.73;;;;;;;;;;5080529;28;20459;-71
2022/04/16 06:32:48;;;;;;;60.77;5.23;;;;;;;;;;5089150;28;20539;-72
2022/04/16 06:35:15;;;;;;;60.90;5.73;;;;;;;;;;5084457;28;20563;-72
2022/04/16 06:37:43;;;;;;;60.70;5.47;;;;;;;;;;5088337;28;20485;-72
2022/04/16 06:40:11;;;;;;;60.37;5.13;;;;;;;;;;5089978;28;20487;-71
2022/04/16 06:42:38;;;;;;;59.93;5.10;;;;;;;;;;5091907;28;20464;-72
2022/04/16 06:45:09;;;;;;;60.30;5.20;;;;;;;;;;5086177;28;20461;-71
2022/04/16 06:47:36;;;;;;;61.63;5.67;;;;;;;;;;5085193;28;20839;-71
2022/04/16 06:50:04;;;;;;;60.53;5.37;;;;;;;;;;5089766;28;21036;-71
2022/04/16 06:52:31;;;;;;;61.30;5.90;;;;;;;;;;5089222;28;20548;-71
2022/04/16 06:54:58;;;;;;;61.03;5.80;;;;;;;;;;5083891;28;20970;-71
2022/04/16 06:57:25;;;;;;;61.00;5.87;;;;;;;;;;5089854;28;20465;-71
2022/04/16 06:59:52;;;;;;;60.90;5.80;;;;;;;;;;5082334;28;20577;-71
2022/04/16 07:02:21;;;;;;;61.10;5.77;;;;;;;;;;5082270;28;20460;-71
2022/04/16 07:04:48;;;;;;;59.90;4.87;;;;;;;;;;5080028;28;20485;-71
2022/04/16 07:07:15;;;;;;;60.27;5.00;;;;;;;;;;5087706;28;20450;-71
2022/04/16 07:09:42;;;;;;;61.10;5.40;;;;;;;;;;5089151;28;20513;-72
2022/04/16 07:12:10;;;;;;;62.07;6.10;;;;;;;;;;5090910;28;20963;-72
2022/04/16 07:14:38;;;;;;;61.10;5.60;;;;;;;;;;5086186;28;20469;-72
2022/04/16 07:17:05;;;;;;;62.70;5.37;;;;;;;;;;5081594;28;20466;-71
2022/04/16 07:19:34;;;;;;;62.40;5.50;;;;;;;;;;5082270;28;20597;-72
2022/04/16 07:22:01;;;;;;;62.77;5.67;;;;;;;;;;5078863;28;20482;-72
2022/04/16 07:24:28;;;;;;;63.10;6.10;;;;;;;;;;5080574;28;20506;-71
2022/04/16 07:26:56;;;;;;;63.27;6.40;;;;;;;;;;5088907;28;21045;-71
2022/04/16 07:29:23;;;;;;;61.70;6.10;;;;;;;;;;5086122;28;20482;-71
2022/04/16 07:31:50;;;;;;;61.67;5.83;;;;;;;;;;5082660;28;20500;-71
2022/04/16 07:34:17;;;;;;;64.47;6.93;;;;;;;;;;5087014;28;20458;-72
2022/04/16 07:36:46;;;;;;;64.10;7.40;;;;;;;;;;5082152;28;20473;-71
2022/04/16 07:39:14;;;;;;;62.87;7.20;;;;;;;;;;5087934;28;20486;-72
2022/04/16 07:41:41;;;;;;;62.43;7.30;;;;;;;;;;5088787;28;20474;-72
2022/04/16 07:44:08;;;;;;;63.30;6.50;;;;;;;;;;5088698;28;20493;-72
2022/04/16 07:46:36;;;;;;;63.90;6.87;;;;;;;;;;5080915;28;20482;-72
2022/04/16 07:49:03;;;;;;;63.37;7.33;;;;;;;;;;5085563;28;21028;-72
2022/04/16 07:51:30;;;;;;;62.27;6.50;;;;;;;;;;5082817;28;20454;-72
2022/04/16 07:53:59;;;;;;;63.20;6.53;;;;;;;;;;5091878;28;20450;-72
2022/04/16 07:56:26;;;;;;;62.40;6.10;;;;;;;;;;5091984;28;20545;-72
2022/04/16 07:58:55;;;;;;;64.67;7.00;;;;;;;;;;5091151;28;20490;-72
2022/04/16 08:01:22;;;;;;;61.87;6.37;;;;;;;;;;5091936;28;20486;-72
2022/04/16 08:03:49;;;;;;;64.70;7.10;;;;;;;;;;5092131;28;20881;-72
2022/04/16 08:06:17;;;;;;;62.17;6.53;;;;;;;;;;5092004;28;20537;-72
2022/04/16 08:08:44;;;;;;;62.80;6.60;;;;;;;;;;5091205;28;20466;-72
2022/04/16 08:11:13;;;;;;;62.63;6.87;;;;;;;;;;5091963;28;20449;-72
2022/04/16 08:13:40;;;;;;;62.47;6.47;;;;;;;;;;5091759;28;20549;-72
2022/04/16 08:16:07;;;;;;;63.60;6.30;;;;;;;;;;5092044;28;20537;-72
2022/04/16 08:18:34;;;;;;;63.47;6.60;;;;;;;;;;5091172;28;20505;-72
2022/04/16 08:21:02;;;;;;;62.60;6.80;;;;;;;;;;5091879;28;20481;-72
2022/04/16 08:23:29;;;;;;;64.50;7.70;;;;;;;;;;5091876;28;20504;-72
2022/04/16 08:25:56;;;;;;;61.90;6.40;;;;;;;;;;5091626;28;20514;-73
2022/04/16 08:28:25;;;;;;;65.00;6.17;;;;;;;;;;5091259;28;21002;-72
2022/04/16 08:30:54;;;;;;;63.80;7.40;;;;;;;;;;5091978;28;20438;-72
2022/04/16 08:33:22;;;;;;;64.23;7.13;;;;;;;;;;5091752;28;20454;-72
2022/04/16 08:35:49;;;;;;;62.27;5.93;;;;;;;;;;5091788;28;20454;-72
2022/04/16 08:38:17;;;;;;;65.90;7.47;;;;;;;;;;5090887;28;20470;-72
2022/04/16 08:40:44;;;;;;;64.40;7.43;;;;;;;;;;5091559;28;20450;-73
2022/04/16 08:43:11;;;;;;;65.27;7.80;;;;;;;;;;5094448;28;20485;-72
2022/04/16 08:45:40;;;;;;;63.43;7.93;;;;;;;;;;5095903;28;20541;-72
2022/04/16 08:48:07;;;;;;;64.77;7.50;;;;;;;;;;5095116;28;20633;-72
2022/04/16 08:50:35;;;;;;;65.27;7.90;;;;;;;;;;5095645;28;20449;-72
2022/04/16 08:53:02;;;;;;;65.43;8.30;;;;;;;;;;5095417;28;20446;-72
2022/04/16 08:55:30;;;;;;;64.83;7.87;;;;;;;;;;5095703;28;20448;-72
2022/04/16 08:57:57;;;;;;;67.83;8.40;;;;;;;;;;5094870;28;20557;-72
2022/04/16 09:00:25;;;;;;;68.97;9.17;;;;;;;;;;5095577;28;20544;-72
2022/04/16 09:02:56;;;;;;;65.30;8.50;;;;;;;;;;5095185;28;20488;-72
2022/04/16 09:05:23;;;;;;;64.97;8.17;;;;;;;;;;5095910;28;20473;-72
2022/04/16 09:07:51;;;;;;;66.77;8.37;;;;;;;;;;5094394;28;20484;-72
2022/04/16 09:10:18;;;;;;;65.07;8.40;;;;;;;;;;5094867;28;20485;-72
2022/04/16 09:12:46;;;;;;;65.30;8.33;;;;;;;;;;5095242;28;20438;-72
2022/04/16 09:15:14;;;;;;;65.87;8.43;;;;;;;;;;5095227;28;20772;-72
2022/04/16 09:17:41;;;;;;;65.10;8.13;;;;;;;;;;5094384;28;20442;-72
2022/04/16 09:20:14;;;;;;;63.67;8.20;;;;;;;;;;5095483;28;20446;-72
2022/04/16 09:22:42;;;;;;;64.90;7.80;;;;;;;;;;5094866;28;20573;-72
2022/04/16 09:25:15;;;;;;;68.57;8.47;;;;;;;;;;5094887;28;20977;-72
2022/04/16 09:27:43;;;;;;;65.00;7.30;;;;;;;;;;5094300;28;20442;-72
2022/04/16 09:30:10;;;;;;;63.83;7.37;;;;;;;;;;5094881;28;20446;-73
2022/04/16 09:32:45;;;;;;;66.63;7.70;;;;;;;;;;5094732;28;20434;-72
2022/04/16 09:35:27;;;;;;;67.27;8.33;;;;;;;;;;5094968;28;20440;-72
2022/04/16 09:37:55;;;;;;;70.50;8.47;;;;;;;;;;5094059;28;20474;-72
2022/04/16 09:40:23;;;;;;;68.50;7.60;;;;;;;;;;5094572;28;20442;-73
2022/04/16 09:42:52;;;;;;;67.50;7.47;;;;;;;;;;5094536;28;20596;-72
2022/04/16 09:45:20;;;;;;;64.77;7.73;;;;;;;;;;5094500;28;20450;-72
2022/04/16 09:47:49;;;;;;;67.20;8.13;;;;;;;;;;5093759;28;20970;-73
2022/04/16 09:50:17;;;;;;;64.93;7.20;;;;;;;;;;5094409;28;20438;-72
2022/04/16 09:52:48;;;;;;;65.20;7.63;;;;;;;;;;5094385;28;20502;-73
2022/04/16 09:55:15;;;;;;;63.77;7.67;;;;;;;;;;5093431;28;20442;-73
2022/04/16 09:57:43;;;;;;;63.30;7.23;;;;;;;;;;5093469;28;20450;-72
2022/04/16 10:00:11;;;;;;;64.77;7.20;;;;;;;;;;5094256;28;20538;-72
2022/04/16 10:02:38;;;;;;;64.40;7.23;;;;;;;;;;5094044;28;20488;-72
2022/04/16 10:05:06;;;;;;;63.93;6.70;;;;;;;;;;5094192;28;20451;-73
2022/04/16 10:07:34;;;;;;;66.33;7.23;;;;;;;;;;5093384;28;20452;-72
2022/04/16 10:10:06;;;;;;;63.27;7.50;;;;;;;;;;5094050;28;20825;-73
2022/04/16 10:15:21;;;;;;;62.60;6.53;;;;;;;;;;5094138;28;20437;-73
2022/04/16 10:17:49;;;;;;;63.33;6.77;;;;;;;;;;5093327;28;20446;-73
2022/04/16 10:20:17;;;;;;;73.43;7.20;;;;;;;;;;5093922;28;20542;-73
2022/04/16 10:22:53;;;;;;;63.20;6.47;;;;;;;;;;5093568;28;20565;-73
2022/04/16 10:25:31;;;;;;;64.20;7.33;;;;;;;;;;5094047;28;20442;-73
2022/04/16 10:28:01;;;;;;;132.63;15.93;;;;;;;;;;5093120;28;20829;-73
2022/04/16 10:30:37;;;;;;;75.13;8.13;;;;;;;;;;5093676;28;20478;-73
2022/04/16 10:33:05;;;;;;;85.40;8.70;;;;;;;;;;5093539;28;20952;-73
2022/04/16 10:35:32;;;;;;;65.00;7.00;;;;;;;;;;5094076;28;20447;-73
2022/04/16 10:37:59;;;;;;;63.00;6.80;;;;;;;;;;5092742;28;21011;-73
2022/04/16 10:40:28;;;;;;;63.30;6.40;;;;;;;;;;5093513;28;20548;-73
2022/04/16 10:43:01;;;;;;;63.90;7.00;;;;;;;;;;5093453;28;20491;-73
2022/04/16 10:45:28;;;;;;;64.10;6.50;;;;;;;;;;5093414;28;20460;-73
2022/04/16 10:47:55;;;;;;;63.60;6.43;;;;;;;;;;5092320;28;20553;-73
2022/04/16 10:50:23;;;;;;;62.07;6.63;;;;;;;;;;5093522;28;20872;-73
2022/04/16 10:52:54;;;;;;;65.20;6.87;;;;;;;;;;5093334;28;20443;-73
2022/04/16 10:55:25;;;;;;;62.10;6.40;;;;;;;;;;5093329;28;20450;-73
2022/04/16 10:58:01;;;;;;;62.60;6.80;;;;;;;;;;5092496;28;20556;-73
2022/04/16 11:00:44;;;;;;;66.00;7.53;;;;;;;;;;5093395;28;20465;-73
2022/04/16 11:03:12;;;;;;;62.70;6.97;;;;;;;;;;5093129;28;20489;-73
2022/04/16 11:05:41;;;;;;;61.73;6.67;;;;;;;;;;5092861;28;20446;-73
2022/04/16 11:08:09;;;;;;;63.73;6.80;;;;;;;;;;5092173;28;20478;-73
2022/04/16 11:10:36;;;;;;;63.10;6.47;;;;;;;;;;5092845;28;20442;-73
2022/04/16 11:13:05;;;;;;;61.70;6.30;;;;;;;;;;5093060;28;20445;-73
2022/04/16 11:15:32;;;;;;;63.83;6.63;;;;;;;;;;5093032;28;20481;-73
2022/04/16 11:18:00;;;;;;;61.20;5.77;;;;;;;;;;5092145;28;20466;-73
2022/04/16 11:20:27;;;;;;;62.07;6.07;;;;;;;;;;5092762;28;20439;-73
2022/04/16 11:22:54;;;;;;;62.47;6.50;;;;;;;;;;5092518;28;20478;-73
2022/04/16 11:25:23;;;;;;;62.03;5.90;;;;;;;;;;5092933;28;20446;-73
2022/04/16 11:36:07;;;;;;;61.30;5.60;;;;;;;;;;5092627;28;20442;-73
2022/04/16 11:38:35;;;;;;;60.83;5.50;;;;;;;;;;5091708;28;20469;-74
2022/04/16 11:41:04;;;;;;;61.17;6.00;;;;;;;;;;5092531;28;20537;-74
2022/04/16 11:43:32;;;;;;;61.20;6.10;;;;;;;;;;5092255;28;20482;-74
2022/04/16 11:46:01;;;;;;;63.97;5.77;;;;;;;;;;5092252;28;20961;-74
2022/04/16 11:48:28;;;;;;;64.00;5.30;;;;;;;;;;5091319;28;20565;-71
2022/04/16 11:50:56;;;;;;;64.60;6.03;;;;;;;;;;5092181;28;20489;-74
2022/04/16 11:53:23;;;;;;;62.40;6.50;;;;;;;;;;5092241;28;20448;-74
2022/04/16 11:55:51;;;;;;;61.57;5.77;;;;;;;;;;5092282;28;20446;-74
2022/04/16 11:58:18;;;;;;;62.20;6.10;;;;;;;;;;5091350;28;20466;-74
2022/04/16 12:00:49;;;;;;;62.37;5.80;;;;;;;;;;5091987;28;20450;-74
2022/04/16 12:03:18;;;;;;;61.60;5.57;;;;;;;;;;5092123;28;20861;-74
2022/04/16 12:05:47;;;;;;;60.57;4.93;;;;;;;;;;5092096;28;20482;-75
2022/04/16 12:08:16;;;;;;;63.13;5.23;;;;;;;;;;5091384;28;20820;-74
2022/04/16 12:10:45;;;;;;;60.67;5.17;;;;;;;;;;5092050;28;20453;-74
2022/04/16 12:13:13;;;;;;;60.67;5.13;;;;;;;;;;5091804;28;20454;-74
2022/04/16 12:15:41;;;;;;;59.37;4.00;;;;;;;;;;5092123;28;20857;-74
2022/04/16 12:18:12;;;;;;;65.03;8.13;;;;;;;;;;5090730;28;20471;-74
2022/04/16 12:20:46;;;;;;;60.47;4.63;;;;;;;;;;5091794;28;20545;-75
2022/04/16 12:23:20;;;;;;;60.30;4.80;;;;;;;;;;5091887;28;20482;-75
2022/04/16 12:25:48;;;;;;;60.60;4.87;;;;;;;;;;5092328;28;21016;-75
2022/04/16 12:28:15;;;;;;;59.60;4.70;;;;;;;;;;5091239;28;20556;-75
2022/04/16 12:30:49;;;;;;;59.17;4.00;;;;;;;;;;5091912;28;20534;-75
2022/04/16 12:33:17;;;;;;;60.43;4.10;;;;;;;;;;5091820;28;20489;-75
2022/04/16 12:35:46;;;;;;;59.70;4.30;;;;;;;;;;5091670;28;20486;-75
2022/04/16 12:38:17;;;;;;;59.90;4.77;;;;;;;;;;5091079;28;20478;-75
2022/04/16 12:40:45;;;;;;;60.50;4.57;;;;;;;;;;5091981;28;20549;-75
2022/04/16 12:43:12;;;;;;;59.57;4.17;;;;;;;;;;5091687;28;20923;-75
2022/04/16 12:45:39;;;;;;;60.93;4.70;;;;;;;;;;5091622;28;20453;-75
2022/04/16 12:48:07;;;;;;;58.80;3.93;;;;;;;;;;5090683;28;20466;-75
2022/04/16 12:50:34;;;;;;;60.73;4.30;;;;;;;;;;5091612;28;20529;-75
2022/04/16 12:53:04;;;;;;;59.87;4.37;;;;;;;;;;5091698;28;20538;-75
2022/04/16 12:55:31;;;;;;;59.37;4.97;;;;;;;;;;5091631;28;20482;-75
2022/04/16 12:57:59;;;;;;;59.77;4.33;;;;;;;;;;5090858;28;20472;-75
2022/04/16 13:00:26;;;;;;;59.27;4.40;;;;;;;;;;5091493;28;20545;-75
2022/04/16 13:02:53;;;;;;;60.03;4.50;;;;;;;;;;5091309;28;20569;-75
2022/04/16 13:05:20;;;;;;;59.10;4.10;;;;;;;;;;5091443;28;20449;-75
2022/04/16 13:07:48;;;;;;;61.10;4.77;;;;;;;;;;5090937;28;20453;-75
2022/04/16 13:10:17;;;;;;;58.40;3.70;;;;;;;;;;5091581;28;20453;-75
2022/04/16 13:12:44;;;;;;;60.00;4.70;;;;;;;;;;5091589;28;20449;-75
2022/04/16 13:15:12;;;;;;;59.60;4.30;;;;;;;;;;5091476;28;20443;-75
2022/04/16 13:17:39;;;;;;;59.17;4.67;;;;;;;;;;5090446;28;20537;-75
2022/04/16 13:20:08;;;;;;;59.20;4.07;;;;;;;;;;5091529;28;21035;-75
2022/04/16 13:22:36;;;;;;;59.40;4.37;;;;;;;;;;5091316;28;20478;-75
2022/04/16 13:25:03;;;;;;;60.30;5.50;;;;;;;;;;5091479;28;20537;-75
2022/04/16 13:27:31;;;;;;;59.60;4.40;;;;;;;;;;5090469;28;20458;-75
2022/04/16 13:29:58;;;;;;;62.50;4.83;;;;;;;;;;5093239;28;20964;-74
2022/04/16 13:32:26;;;;;;;59.37;4.17;;;;;;;;;;5094582;28;20442;-75
2022/04/16 13:34:53;;;;;;;60.37;4.10;;;;;;;;;;5094680;28;20938;-75
2022/04/16 13:37:20;;;;;;;60.27;4.20;;;;;;;;;;5094434;28;20449;-74
2022/04/16 13:42:34;;;;;;;61.10;4.53;;;;;;;;;;5094462;28;20477;-75
2022/04/16 13:45:01;;;;;;;59.77;4.60;;;;;;;;;;5094740;28;20525;-75
2022/04/16 13:47:28;;;;;;;59.40;4.23;;;;;;;;;;5093922;28;20501;-75
2022/04/16 13:49:56;;;;;;;59.17;4.00;;;;;;;;;;5094409;28;21100;-72
2022/04/16 13:52:23;;;;;;;59.60;4.30;;;;;;;;;;5094373;28;20865;-75
2022/04/16 13:54:51;;;;;;;59.73;4.67;;;;;;;;;;5094298;28;20998;-74
2022/04/16 13:57:18;;;;;;;60.23;4.40;;;;;;;;;;5093529;28;20992;-75
2022/04/16 13:59:46;;;;;;;60.60;4.70;;;;;;;;;;5094211;28;20475;-74
2022/04/16 14:02:13;;;;;;;59.20;4.10;;;;;;;;;;5094128;28;20522;-74
2022/04/16 14:07:25;;;;;;;60.27;4.60;;;;;;;;;;5093540;28;20419;-75
2022/04/16 14:09:52;;;;;;;60.37;4.83;;;;;;;;;;5093688;28;20474;-74
2022/04/16 14:12:20;;;;;;;59.37;3.83;;;;;;;;;;5094130;28;20518;-75
2022/04/16 14:14:48;;;;;;;61.83;4.23;;;;;;;;;;5094103;28;20506;-74
2022/04/16 14:17:15;;;;;;;60.80;4.97;;;;;;;;;;5093217;28;20444;-75
2022/04/16 14:19:43;;;;;;;60.30;3.63;;;;;;;;;;5093918;28;20467;-75
2022/04/16 14:22:10;;;;;;;59.30;3.97;;;;;;;;;;5094223;28;20448;-75
2022/04/16 14:24:37;;;;;;;61.40;4.50;;;;;;;;;;5093986;28;20451;-74
2022/04/16 14:27:05;;;;;;;62.10;3.90;;;;;;;;;;5093748;28;20946;-74
2022/04/16 14:29:33;;;;;;;60.47;4.00;;;;;;;;;;5093513;28;20467;-74
2022/04/16 14:32:04;;;;;;;60.20;4.17;;;;;;;;;;5093748;28;20840;-73
2022/04/16 14:34:31;;;;;;;61.77;4.47;;;;;;;;;;5093650;28;20550;-73
2022/04/16 14:36:59;;;;;;;61.30;4.30;;;;;;;;;;5093420;28;20542;-73
2022/04/16 14:39:26;;;;;;;59.27;4.07;;;;;;;;;;5092691;28;20495;-73
2022/04/16 14:41:54;;;;;;;60.07;3.93;;;;;;;;;;5093551;28;20475;-73
2022/04/16 14:44:21;;;;;;;59.60;3.93;;;;;;;;;;5093414;28;20484;-74
2022/04/16 14:46:48;;;;;;;59.63;4.00;;;;;;;;;;5093423;28;20457;-73
2022/04/16 14:49:17;;;;;;;59.40;3.80;;;;;;;;;;5092422;28;20860;-73
2022/04/16 14:51:44;;;;;;;61.27;4.17;;;;;;;;;;5093565;28;20534;-73
2022/04/16 14:54:12;;;;;;;59.40;4.00;;;;;;;;;;5093396;28;20534;-73
2022/04/16 14:56:39;;;;;;;67.27;5.80;;;;;;;;;;5093355;28;20441;-73
2022/04/16 14:59:07;;;;;;;59.60;3.80;;;;;;;;;;5092352;28;20540;-74
2022/04/16 15:01:34;;;;;;;60.73;4.00;;;;;;;;;;5093096;28;20978;-73
2022/04/16 15:04:01;;;;;;;60.17;4.43;;;;;;;;;;5092864;28;20483;-73
2022/04/16 15:06:29;;;;;;;60.03;4.40;;;;;;;;;;5093236;28;20464;-73